Stations météo

réclame
Mon MeteoGroup
Isola Stromboli, Italie (16416): Température de l'air & dewpoint: 11.01.2021 04:00:00 - 17.01.2021 04:00:00 (CET)Isola Stromboli, Italie (16416): Vitesse du vent: 11.01.2021 04:00:00 - 17.01.2021 04:00:00 (CET)Isola Stromboli, Italie (16416): Direction du vent: 11.01.2021 04:00:00 - 17.01.2021 04:00:00 (CET)Isola Stromboli, Italie (16416): reduced air pressure: 11.01.2021 04:00:00 - 17.01.2021 04:00:00 (CET)Isola Stromboli, Italie (16416): Quantités de précipitations: 11.01.2021 04:00:00 - 17.01.2021 04:00:00 (CET)
Date & Time tt [°C] td [°C] ff [km/h] ff [knt] dd ppp [hPa] rr [mm]
17.01.2021 04:00:00 - - - - - - -
17.01.2021 03:00:00 6,9 -1,6 13 7 S 1019,6 -
17.01.2021 02:00:00 7,3 -2,6 16 9 S 1019,7 -
17.01.2021 01:00:00 7,4 -2,2 18 10 S 1019,4 0,0
17.01.2021 00:00:00 7,5 -2,9 22 12 S 1019,4 -
16.01.2021 23:00:00 7,7 -1,4 21 11 S 1019,1 -
16.01.2021 22:00:00 7,9 -1,7 21 11 S 1018,4 -
16.01.2021 21:00:00 8,3 -0,8 22 12 S 1018,3 -
16.01.2021 20:00:00 8,5 -0,6 18 10 S 1017,7 -
16.01.2021 19:00:00 8,4 -1,3 18 10 S 1017,0 0,0
16.01.2021 18:00:00 8,5 0,1 16 9 S 1016,5 -
16.01.2021 17:00:00 8,5 -0,1 16 9 S 1015,9 -
16.01.2021 16:00:00 8,8 -0,1 16 9 S 1015,4 -
16.01.2021 15:00:00 8,8 0,9 18 10 S 1015,0 -
16.01.2021 14:00:00 9,3 0,4 18 10 S 1014,6 -
16.01.2021 13:00:00 9,5 0,8 22 12 S 1014,5 0,0
16.01.2021 12:00:00 9,6 1,2 22 12 S 1014,8 -
16.01.2021 11:00:00 9,3 1,8 16 9 S 1014,9 -
16.01.2021 10:00:00 9,3 2,5 15 8 S 1014,7 -
16.01.2021 09:00:00 9,6 2,8 22 12 S 1013,5 -
16.01.2021 08:00:00 9,1 2,6 22 12 S 1013,2 -
16.01.2021 07:00:00 8,7 2,0 16 9 S 1012,6 0,0
16.01.2021 06:00:00 8,8 2,3 18 10 S 1011,8 -
16.01.2021 05:00:00 - - - - - - -
16.01.2021 04:00:00 - - - - - - -
16.01.2021 03:00:00 - - - - - - -
16.01.2021 02:00:00 - - - - - - -
16.01.2021 01:00:00 - - - - - - 0,0
16.01.2021 00:00:00 - - - - - - -
15.01.2021 23:00:00 9,5 8,7 15 8 S 1008,9 -
15.01.2021 22:00:00 10,0 8,9 15 8 S 1008,5 -
15.01.2021 21:00:00 9,9 8,8 4 2 S 1008,6 -
15.01.2021 20:00:00 10,9 9,6 11 6 S 1008,8 -
15.01.2021 19:00:00 11,2 8,7 15 8 S 1008,4 0,0
15.01.2021 18:00:00 11,6 9,3 11 6 S 1008,0 -
15.01.2021 17:00:00 12,2 9,7 16 9 S 1008,3 -
15.01.2021 16:00:00 11,5 8,9 9 5 S 1008,6 -
15.01.2021 15:00:00 12,3 7,9 16 9 S 1008,7 -
15.01.2021 14:00:00 12,5 11,1 15 8 S 1008,8 -
15.01.2021 13:00:00 12,1 9,8 13 7 S 1010,0 0,0
15.01.2021 12:00:00 12,6 10,3 11 6 S 1010,9 -
15.01.2021 11:00:00 12,9 9,1 2 1 S 1011,6 -
15.01.2021 10:00:00 12,0 9,5 13 7 S 1011,4 -
15.01.2021 09:00:00 10,7 10,2 18 10 S 1011,7 -
15.01.2021 08:00:00 11,2 10,6 18 10 S 1011,2 -
15.01.2021 07:00:00 11,4 10,3 22 12 S 1011,2 0,0
15.01.2021 06:00:00 12,7 10,7 16 9 S 1010,5 -
15.01.2021 05:00:00 12,5 10,2 13 7 S 1010,4 -
15.01.2021 04:00:00 12,3 10,0 13 7 S 1010,6 -
15.01.2021 03:00:00 13,1 10,1 22 12 S 1011,0 -
15.01.2021 02:00:00 13,2 9,2 18 10 S 1010,9 -
15.01.2021 01:00:00 12,5 10,5 16 9 S 1011,1 0,0
15.01.2021 00:00:00 12,8 9,4 11 6 S 1011,5 -
14.01.2021 23:00:00 13,8 10,7 4 2 S 1011,4 -
14.01.2021 22:00:00 13,4 10,9 8 4 S 1011,5 -
14.01.2021 21:00:00 13,3 10,8 9 5 S 1011,1 -
14.01.2021 20:00:00 13,4 10,4 13 7 S 1011,0 -
14.01.2021 19:00:00 13,1 10,4 11 6 S 1010,7 0,0
14.01.2021 18:00:00 13,4 11,4 16 9 S 1010,6 -
14.01.2021 17:00:00 13,4 10,4 18 10 S 1010,5 -
14.01.2021 16:00:00 13,7 10,5 18 10 S 1010,6 -
14.01.2021 15:00:00 13,8 10,7 22 12 S 1010,9 -
14.01.2021 14:00:00 13,2 9,8 18 10 S 1011,1 -
14.01.2021 13:00:00 14,0 10,2 9 5 S 1012,3 0,0
14.01.2021 12:00:00 14,1 9,7 13 7 S 1013,3 -
14.01.2021 11:00:00 14,3 9,5 9 5 S 1014,4 -
14.01.2021 10:00:00 14,6 9,6 9 5 S 1014,6 -
14.01.2021 09:00:00 13,6 10,6 8 4 S 1014,7 -
14.01.2021 08:00:00 12,2 9,0 11 6 S 1015,4 -
14.01.2021 07:00:00 13,3 9,7 21 11 S 1015,2 0,0
14.01.2021 06:00:00 13,0 9,6 22 12 S 1015,2 -
14.01.2021 05:00:00 12,3 8,7 13 7 S 1015,5 -
14.01.2021 04:00:00 12,3 8,7 15 8 S 1016,1 -
14.01.2021 03:00:00 12,4 8,4 15 8 S 1016,6 -
14.01.2021 02:00:00 12,5 8,9 18 10 S 1016,6 -
14.01.2021 01:00:00 12,8 8,8 28 15 S 1016,5 0,0
14.01.2021 00:00:00 12,7 8,5 28 15 S 1016,6 -
13.01.2021 23:00:00 12,7 8,1 26 14 S 1016,7 -
13.01.2021 22:00:00 12,5 7,9 28 15 S 1016,4 -
13.01.2021 21:00:00 12,5 8,1 29 16 S 1015,9 -
13.01.2021 20:00:00 12,6 7,6 29 16 S 1015,5 -
13.01.2021 19:00:00 12,5 7,5 39 21 S 1015,0 0,0
13.01.2021 18:00:00 12,6 8,0 29 16 S 1014,2 -
13.01.2021 17:00:00 13,1 9,5 29 16 S 1013,6 -
13.01.2021 16:00:00 12,9 9,3 29 16 S 1013,5 -
13.01.2021 15:00:00 12,7 8,7 22 12 S 1014,1 -
13.01.2021 14:00:00 12,4 7,2 22 12 S 1014,0 -
13.01.2021 13:00:00 12,2 6,8 24 13 S 1014,1 0,0
13.01.2021 12:00:00 12,0 6,0 22 12 S 1015,0 -
13.01.2021 11:00:00 12,3 5,4 22 12 S 1015,4 -
13.01.2021 10:00:00 12,3 4,9 15 8 S 1015,1 -
13.01.2021 09:00:00 11,8 5,1 13 7 S 1014,5 -
13.01.2021 08:00:00 11,3 5,5 21 11 S 1014,4 -
13.01.2021 07:00:00 11,3 4,9 24 13 S 1014,3 0,0
13.01.2021 06:00:00 11,2 5,4 21 11 S 1014,2 -
13.01.2021 05:00:00 11,0 4,8 24 13 S 1014,4 -
13.01.2021 04:00:00 11,3 6,4 26 14 S 1014,4 -
13.01.2021 03:00:00 11,4 6,3 24 13 S 1014,9 -
13.01.2021 02:00:00 11,6 5,8 28 15 S 1014,7 -
13.01.2021 01:00:00 11,1 7,6 31 17 S 1014,2 0,0
13.01.2021 00:00:00 10,1 8,5 21 11 S 1014,6 -
12.01.2021 23:00:00 11,1 8,5 31 17 S 1014,2 -
12.01.2021 22:00:00 10,9 7,7 28 15 S 1013,9 -
12.01.2021 21:00:00 11,0 6,7 24 13 S 1013,4 -
12.01.2021 20:00:00 10,8 6,3 28 15 S 1013,3 -
12.01.2021 19:00:00 10,7 6,0 28 15 S 1012,8 0,0
12.01.2021 18:00:00 10,5 5,6 28 15 S 1012,3 -
12.01.2021 17:00:00 10,7 7,4 35 19 S 1011,7 -
12.01.2021 16:00:00 9,7 7,6 28 15 S 1011,8 -
12.01.2021 15:00:00 9,7 8,1 26 14 S 1011,8 -
12.01.2021 14:00:00 9,2 7,5 21 11 S 1012,2 -
12.01.2021 13:00:00 9,3 7,9 31 17 S 1012,1 0,0
12.01.2021 12:00:00 8,8 6,6 16 9 S 1012,5 -
12.01.2021 11:00:00 11,0 8,9 9 5 S 1012,8 -
12.01.2021 10:00:00 10,7 8,6 11 6 S 1012,8 -
12.01.2021 09:00:00 10,0 7,6 4 2 S 1012,3 -
12.01.2021 08:00:00 9,6 4,9 18 10 S 1012,4 -
12.01.2021 07:00:00 11,4 8,8 4 2 S 1012,1 0,0
12.01.2021 06:00:00 10,2 8,4 2 1 S 1012,0 -
12.01.2021 05:00:00 10,6 8,5 4 2 S 1012,4 -
12.01.2021 04:00:00 11,0 8,7 8 4 S 1012,9 -
12.01.2021 03:00:00 10,7 8,6 13 7 S 1013,4 -
12.01.2021 02:00:00 11,2 7,5 8 4 S 1013,1 -
12.01.2021 01:00:00 11,2 7,5 9 5 S 1013,5 0,0
12.01.2021 00:00:00 10,9 7,0 9 5 S 1013,6 -
11.01.2021 23:00:00 11,2 7,1 8 4 S 1013,8 -
11.01.2021 22:00:00 11,6 7,1 9 5 S 1014,1 -
11.01.2021 21:00:00 11,7 7,4 13 7 S 1013,9 -
11.01.2021 20:00:00 12,3 7,7 15 8 S 1013,8 -
11.01.2021 19:00:00 12,4 8,6 13 7 S 1013,5 0,0
11.01.2021 18:00:00 12,5 8,9 8 4 S 1013,3 -
11.01.2021 17:00:00 12,7 8,9 11 6 S 1012,9 -
11.01.2021 16:00:00 12,9 9,5 11 6 S 1012,7 -
11.01.2021 15:00:00 13,2 10,0 15 8 S 1012,4 -
11.01.2021 14:00:00 13,3 10,1 11 6 S 1012,4 -
11.01.2021 13:00:00 13,4 10,0 11 6 S 1012,8 0,0
11.01.2021 12:00:00 13,7 9,3 13 7 S 1013,2 -
11.01.2021 11:00:00 14,0 10,4 11 6 S 1013,6 -
11.01.2021 10:00:00 13,4 9,8 11 6 S 1013,3 -
11.01.2021 09:00:00 13,2 10,3 15 8 S 1012,4 -
11.01.2021 08:00:00 12,7 10,2 18 10 S 1011,6 -
11.01.2021 07:00:00 12,9 11,1 15 8 S 1011,2 0,0
11.01.2021 06:00:00 12,8 11,2 15 8 S 1010,8 -
11.01.2021 05:00:00 13,1 11,6 26 14 S 1010,3 -
11.01.2021 04:00:00 13,4 11,9 26 14 S 1009,9 -

tt = Température de l'air
td = dewpoint
ff = Vitesse du vent
dd = Direction du vent
ppp = reduced air pressure
rr = Quantités de précipitations

stations d'obs. à proximité